createdAt,value
2022-12-11T00:00:38.983Z,17.70
2022-12-11T00:01:39.141Z,16.40
2022-12-11T00:02:39.354Z,18.40
2022-12-11T00:03:39.603Z,16.40
2022-12-11T00:04:39.660Z,16.20
2022-12-11T00:05:39.826Z,15.50
2022-12-11T00:06:39.992Z,14.50
2022-12-11T00:07:40.159Z,15.50
2022-12-11T00:08:40.343Z,15.70
2022-12-11T00:09:40.492Z,16.80
2022-12-11T00:10:40.662Z,14.70
2022-12-11T00:11:40.829Z,16.70
2022-12-11T00:12:40.997Z,16.60
2022-12-11T00:13:41.178Z,16.80
2022-12-11T00:14:41.372Z,15.60
2022-12-11T00:15:41.515Z,16.20
2022-12-11T00:16:41.716Z,16.60
2022-12-11T00:17:41.865Z,17.00
2022-12-11T00:18:42.034Z,16.80
2022-12-11T00:19:42.206Z,17.40
2022-12-11T00:20:42.370Z,17.60
2022-12-11T00:21:42.523Z,17.80
2022-12-11T00:22:42.697Z,17.10
2022-12-11T00:23:42.873Z,15.30
2022-12-11T00:24:43.048Z,18.30
2022-12-11T00:25:43.206Z,16.70
2022-12-11T00:26:43.372Z,14.90
2022-12-11T00:27:43.548Z,17.70
2022-12-11T00:28:43.746Z,16.70
2022-12-11T00:29:43.876Z,17.10
2022-12-11T00:30:44.045Z,17.70
2022-12-11T00:31:44.215Z,17.10
2022-12-11T00:32:44.380Z,15.90
2022-12-11T00:33:44.631Z,14.90
2022-12-11T00:34:44.708Z,17.90
2022-12-11T00:35:44.866Z,15.90
2022-12-11T00:36:45.026Z,16.50
2022-12-11T00:37:45.196Z,16.20
2022-12-11T00:38:45.354Z,16.30
2022-12-11T00:39:45.519Z,16.50
2022-12-11T00:40:45.683Z,15.40
2022-12-11T00:41:45.848Z,16.70
2022-12-11T00:42:46.035Z,17.40
2022-12-11T00:43:46.197Z,16.40
2022-12-11T00:44:46.355Z,17.60
2022-12-11T00:45:46.578Z,16.90
2022-12-11T00:46:46.699Z,16.40
2022-12-11T00:47:46.860Z,17.10
2022-12-11T00:48:47.044Z,16.40
2022-12-11T00:49:50.025Z,17.70
2022-12-11T00:50:47.380Z,16.80
2022-12-11T00:51:47.590Z,15.70
2022-12-11T00:52:47.710Z,17.00
2022-12-11T00:53:47.881Z,17.30
2022-12-11T00:54:48.039Z,16.40
2022-12-11T00:55:48.215Z,19.30
2022-12-11T00:56:48.390Z,17.80
2022-12-11T00:57:48.549Z,16.40
2022-12-11T00:58:48.735Z,17.10
2022-12-11T00:59:48.893Z,16.20
2022-12-11T01:00:49.067Z,16.30
2022-12-11T01:01:49.304Z,16.90
2022-12-11T01:02:49.463Z,16.90
2022-12-11T01:03:49.629Z,18.30
2022-12-11T01:04:49.772Z,18.30
2022-12-11T01:05:49.942Z,16.30
2022-12-11T01:06:50.174Z,18.10
2022-12-11T01:07:50.329Z,16.30
2022-12-11T01:08:50.462Z,17.90
2022-12-11T01:09:50.645Z,17.30
2022-12-11T01:10:50.847Z,17.80
2022-12-11T01:11:51.015Z,17.00
2022-12-11T01:12:51.173Z,17.80
2022-12-11T01:13:51.353Z,17.50
2022-12-11T01:14:51.515Z,17.70
2022-12-11T01:15:51.678Z,17.80
2022-12-11T01:16:52.517Z,16.00
2022-12-11T01:17:52.009Z,19.00
2022-12-11T01:18:52.177Z,16.90
2022-12-11T01:19:52.354Z,18.50
2022-12-11T01:20:52.541Z,16.60
2022-12-11T01:21:52.684Z,17.40
2022-12-11T01:22:52.854Z,16.90
2022-12-11T01:23:53.044Z,16.80
2022-12-11T01:24:53.197Z,16.90
2022-12-11T01:25:53.384Z,17.20
2022-12-11T01:26:53.556Z,17.10
2022-12-11T01:27:53.735Z,15.90
2022-12-11T01:28:53.888Z,16.30
2022-12-11T01:29:54.057Z,17.00
2022-12-11T01:30:54.511Z,16.80
2022-12-11T01:31:54.386Z,18.40
2022-12-11T01:32:54.548Z,17.20
2022-12-11T01:33:54.721Z,17.00
2022-12-11T01:34:54.874Z,16.30
2022-12-11T01:35:55.079Z,15.50
2022-12-11T01:36:55.243Z,15.90
2022-12-11T01:37:55.409Z,18.70
2022-12-11T01:38:55.576Z,17.10
2022-12-11T01:39:55.769Z,17.90
2022-12-11T01:40:55.949Z,16.30
2022-12-11T01:41:56.115Z,17.50
2022-12-11T01:42:56.269Z,16.00
2022-12-11T01:43:56.431Z,16.80
2022-12-11T01:44:56.614Z,17.10
2022-12-11T01:45:56.811Z,16.80
2022-12-11T01:46:56.947Z,15.40
2022-12-11T01:47:57.135Z,17.30
2022-12-11T01:48:57.283Z,16.50
2022-12-11T01:49:57.461Z,15.90
2022-12-11T01:50:57.637Z,17.00
2022-12-11T01:51:57.815Z,17.70
2022-12-11T01:52:57.963Z,18.20
2022-12-11T01:53:58.131Z,15.50
2022-12-11T01:54:58.314Z,16.50
2022-12-11T01:55:58.484Z,16.80
2022-12-11T01:56:58.661Z,17.40
2022-12-11T01:57:58.820Z,15.80
2022-12-11T01:58:58.978Z,16.80
2022-12-11T01:59:59.195Z,16.80
2022-12-11T02:00:59.377Z,14.60
2022-12-11T02:01:59.509Z,17.00
2022-12-11T02:02:59.662Z,17.80
2022-12-11T02:03:59.834Z,15.50
2022-12-11T02:05:00.036Z,15.20
2022-12-11T02:06:00.162Z,15.40
2022-12-11T02:07:00.317Z,16.20
2022-12-11T02:08:00.513Z,16.20
2022-12-11T02:09:00.670Z,17.00
2022-12-11T02:10:00.854Z,16.20
2022-12-11T02:11:01.026Z,16.20
2022-12-11T02:12:01.194Z,17.40
2022-12-11T02:13:01.401Z,16.40
2022-12-11T02:14:01.527Z,16.10
2022-12-11T02:15:01.713Z,15.80
2022-12-11T02:16:01.942Z,16.30
2022-12-11T02:17:02.031Z,16.70
2022-12-11T02:18:02.221Z,16.90
2022-12-11T02:19:02.361Z,15.80
2022-12-11T02:20:02.529Z,15.40
2022-12-11T02:21:02.706Z,15.30
2022-12-11T02:22:02.857Z,16.90
2022-12-11T02:23:03.033Z,16.10
2022-12-11T02:24:03.205Z,16.20
2022-12-11T02:25:03.359Z,16.80
2022-12-11T02:26:03.544Z,16.00
2022-12-11T02:27:03.708Z,16.60
2022-12-11T02:28:03.878Z,16.70
2022-12-11T02:29:04.038Z,16.90
2022-12-11T02:30:04.219Z,15.40
2022-12-11T02:31:04.440Z,16.10
2022-12-11T02:32:04.570Z,15.50
2022-12-11T02:33:04.719Z,15.60
2022-12-11T02:34:04.892Z,15.40
2022-12-11T02:35:05.046Z,15.90
2022-12-11T02:36:05.241Z,16.10
2022-12-11T02:37:05.370Z,16.30
2022-12-11T02:38:05.549Z,16.50
2022-12-11T02:39:05.710Z,15.90
2022-12-11T02:40:05.870Z,15.60
2022-12-11T02:41:06.090Z,16.10
2022-12-11T02:42:06.229Z,15.70
2022-12-11T02:43:06.372Z,17.10
2022-12-11T02:44:06.550Z,15.50
2022-12-11T02:45:06.718Z,17.40
2022-12-11T02:46:06.980Z,14.80
2022-12-11T02:47:07.071Z,16.80
2022-12-11T02:48:07.225Z,15.10
2022-12-11T02:49:07.392Z,17.20
2022-12-11T02:50:07.559Z,15.60
2022-12-11T02:51:07.762Z,15.90
2022-12-11T02:52:07.889Z,15.20
2022-12-11T02:53:08.054Z,16.40
2022-12-11T02:54:08.223Z,15.50
2022-12-11T02:55:08.489Z,16.70
2022-12-11T02:56:08.595Z,16.40
2022-12-11T02:57:08.713Z,15.40
2022-12-11T02:58:08.885Z,16.50
2022-12-11T02:59:09.054Z,15.10
2022-12-11T03:00:09.227Z,16.60
2022-12-11T03:01:09.448Z,16.00
2022-12-11T03:02:09.607Z,16.10
2022-12-11T03:03:09.747Z,15.40
2022-12-11T03:04:09.916Z,16.00
2022-12-11T03:05:10.281Z,15.00
2022-12-11T03:06:10.278Z,14.90
2022-12-11T03:07:10.434Z,15.00
2022-12-11T03:08:10.636Z,14.80
2022-12-11T03:09:10.799Z,15.70
2022-12-11T03:10:10.961Z,15.60
2022-12-11T03:11:11.141Z,13.40
2022-12-11T03:12:11.296Z,14.00
2022-12-11T03:13:11.451Z,15.40
2022-12-11T03:14:11.614Z,15.60
2022-12-11T03:15:12.084Z,15.00
2022-12-11T03:16:11.967Z,16.10
2022-12-11T03:17:12.118Z,16.30
2022-12-11T03:18:12.277Z,16.20
2022-12-11T03:19:12.431Z,14.30
2022-12-11T03:20:12.617Z,14.90
2022-12-11T03:21:12.772Z,16.50
2022-12-11T03:22:12.965Z,15.30
2022-12-11T03:23:13.123Z,14.50
2022-12-11T03:24:13.304Z,14.60
2022-12-11T03:25:13.729Z,16.10
2022-12-11T03:26:13.649Z,14.50
2022-12-11T03:27:13.841Z,15.00
2022-12-11T03:28:13.997Z,13.80
2022-12-11T03:29:14.156Z,14.50
2022-12-11T03:30:14.320Z,14.50
2022-12-11T03:31:14.578Z,15.20
2022-12-11T03:32:14.669Z,15.50
2022-12-11T03:33:14.817Z,14.40
2022-12-11T03:34:15.006Z,14.50
2022-12-11T03:35:15.435Z,15.50
2022-12-11T03:36:15.361Z,14.30
2022-12-11T03:37:15.549Z,14.40
2022-12-11T03:38:15.702Z,15.00
2022-12-11T03:39:15.874Z,15.60
2022-12-11T03:40:16.047Z,15.40
2022-12-11T03:41:16.227Z,16.80
2022-12-11T03:42:16.423Z,14.60
2022-12-11T03:43:16.599Z,14.70
2022-12-11T03:44:23.767Z,13.70
2022-12-11T03:45:16.929Z,14.20
2022-12-11T03:46:17.183Z,13.50
2022-12-11T03:47:20.197Z,15.10
2022-12-11T03:48:17.430Z,14.60
2022-12-11T03:49:17.587Z,14.40
2022-12-11T03:50:17.780Z,14.60
2022-12-11T03:51:17.974Z,15.00
2022-12-11T03:52:18.140Z,14.90
2022-12-11T03:53:18.312Z,14.10
2022-12-11T03:54:18.466Z,14.20
2022-12-11T03:55:18.629Z,14.10
2022-12-11T03:56:18.784Z,14.00
2022-12-11T03:57:18.969Z,15.60
2022-12-11T03:58:19.178Z,14.50
2022-12-11T03:59:19.326Z,14.70
2022-12-11T04:00:19.505Z,14.30
2022-12-11T04:01:19.663Z,13.50
2022-12-11T04:02:19.850Z,13.60
2022-12-11T04:03:20.021Z,13.60
2022-12-11T04:04:20.247Z,14.80
2022-12-11T04:05:20.332Z,14.80
2022-12-11T04:06:20.493Z,13.90
2022-12-11T04:07:20.637Z,14.60
2022-12-11T04:08:20.909Z,14.70
2022-12-11T04:09:21.009Z,12.90
2022-12-11T04:10:21.205Z,15.00
2022-12-11T04:11:21.354Z,12.90
2022-12-11T04:12:21.548Z,14.50
2022-12-11T04:13:21.723Z,14.10
2022-12-11T04:14:21.872Z,14.10
2022-12-11T04:15:22.028Z,14.60
2022-12-11T04:16:22.249Z,13.30
2022-12-11T04:17:22.374Z,13.90
2022-12-11T04:18:22.564Z,14.10
2022-12-11T04:19:22.721Z,13.10
2022-12-11T04:20:22.905Z,14.30
2022-12-11T04:21:23.057Z,13.60
2022-12-11T04:22:23.247Z,16.20
2022-12-11T04:23:23.421Z,13.80
2022-12-11T04:24:23.646Z,13.90
2022-12-11T04:25:23.794Z,14.20
2022-12-11T04:26:23.946Z,13.90
2022-12-11T04:27:24.106Z,15.10
2022-12-11T04:28:24.297Z,15.00
2022-12-11T04:29:24.466Z,13.70
2022-12-11T04:30:28.030Z,13.60
2022-12-11T04:31:25.802Z,13.70
2022-12-11T04:32:24.972Z,14.50
2022-12-11T04:33:25.128Z,14.60
2022-12-11T04:34:25.326Z,13.90
2022-12-11T04:35:25.436Z,14.30
2022-12-11T04:36:25.632Z,12.80
2022-12-11T04:37:25.782Z,14.00
2022-12-11T04:38:25.974Z,15.00
2022-12-11T04:39:26.168Z,14.00
2022-12-11T04:40:26.318Z,15.60
2022-12-11T04:41:26.467Z,14.60
2022-12-11T04:42:26.658Z,14.20
2022-12-11T04:43:26.837Z,14.30
2022-12-11T04:44:27.072Z,15.20
2022-12-11T04:45:27.188Z,14.60
2022-12-11T04:46:27.430Z,14.60
2022-12-11T04:47:27.557Z,13.70
2022-12-11T04:48:27.749Z,14.10
2022-12-11T04:49:27.989Z,14.60
2022-12-11T04:50:28.098Z,14.80
2022-12-11T04:51:28.282Z,14.30
2022-12-11T04:52:28.420Z,14.20
2022-12-11T04:53:28.624Z,14.00
2022-12-11T04:54:28.833Z,13.20
2022-12-11T04:55:28.997Z,14.50
2022-12-11T04:56:29.130Z,15.30
2022-12-11T04:57:29.325Z,14.10
2022-12-11T04:58:29.505Z,13.30
2022-12-11T04:59:29.700Z,16.00
2022-12-11T05:00:29.940Z,14.40
2022-12-11T05:01:30.075Z,15.50
2022-12-11T05:02:30.299Z,13.50
2022-12-11T05:03:30.401Z,14.30
2022-12-11T05:04:30.591Z,14.80
2022-12-11T05:05:30.789Z,15.50
2022-12-11T05:06:30.913Z,14.80
2022-12-11T05:07:31.083Z,14.80
2022-12-11T05:08:31.290Z,14.80
2022-12-11T05:09:31.441Z,14.20
2022-12-11T05:10:31.637Z,15.20
2022-12-11T05:11:31.797Z,15.10
2022-12-11T05:12:31.963Z,14.80
2022-12-11T05:13:32.123Z,16.00
2022-12-11T05:14:32.286Z,15.10
2022-12-11T05:15:32.472Z,15.00
2022-12-11T05:16:32.636Z,14.50
2022-12-11T05:17:32.847Z,15.50
2022-12-11T05:18:33.006Z,15.10
2022-12-11T05:19:33.177Z,14.40
2022-12-11T05:20:33.365Z,14.70
2022-12-11T05:21:35.303Z,15.70
2022-12-11T05:22:33.692Z,15.50
2022-12-11T05:23:33.870Z,14.90
2022-12-11T05:24:34.022Z,16.30
2022-12-11T05:25:34.202Z,15.90
2022-12-11T05:26:34.383Z,14.40
2022-12-11T05:27:34.538Z,14.70
2022-12-11T05:28:34.718Z,16.40
2022-12-11T05:29:34.886Z,15.50
2022-12-11T05:30:35.073Z,15.60
2022-12-11T05:31:35.298Z,15.70
2022-12-11T05:32:35.394Z,16.80
2022-12-11T05:33:35.570Z,16.50
2022-12-11T05:34:35.727Z,15.20
2022-12-11T05:35:35.934Z,16.30
2022-12-11T05:36:36.105Z,15.50
2022-12-11T05:37:36.279Z,16.50
2022-12-11T05:38:36.434Z,16.30
2022-12-11T05:39:36.609Z,15.50
2022-12-11T05:40:36.809Z,15.70
2022-12-11T05:41:37.002Z,15.90
2022-12-11T05:42:37.149Z,16.60
2022-12-11T05:43:37.325Z,15.60
2022-12-11T05:44:37.476Z,15.10
2022-12-11T05:45:37.652Z,15.10
2022-12-11T05:46:37.864Z,14.70
2022-12-11T05:47:38.015Z,16.70
2022-12-11T05:48:38.165Z,17.70
2022-12-11T05:49:38.331Z,15.00
2022-12-11T05:50:38.517Z,17.60
2022-12-11T05:51:38.721Z,16.50
2022-12-11T05:52:38.837Z,14.00
2022-12-11T05:53:39.038Z,15.90
2022-12-11T05:54:39.196Z,15.70
2022-12-11T05:55:39.368Z,16.10
2022-12-11T05:56:39.535Z,16.30
2022-12-11T05:57:39.696Z,16.80
2022-12-11T05:58:39.852Z,15.00
2022-12-11T05:59:40.025Z,14.30
2022-12-11T06:00:40.208Z,15.10
2022-12-11T06:01:40.469Z,16.30
2022-12-11T06:02:40.673Z,15.50
2022-12-11T06:03:40.712Z,16.20
2022-12-11T06:04:40.878Z,16.30
2022-12-11T06:05:41.031Z,16.30
2022-12-11T06:06:41.239Z,15.00
2022-12-11T06:07:41.380Z,15.60
2022-12-11T06:08:41.562Z,16.00
2022-12-11T06:09:41.729Z,15.80
2022-12-11T06:10:41.889Z,15.50
2022-12-11T06:11:42.111Z,16.00
2022-12-11T06:12:42.270Z,15.10
2022-12-11T06:13:42.429Z,15.50
2022-12-11T06:14:42.611Z,15.70
2022-12-11T06:15:42.803Z,14.90
2022-12-11T06:16:43.037Z,16.00
2022-12-11T06:17:43.166Z,14.20
2022-12-11T06:18:43.324Z,15.10
2022-12-11T06:19:43.491Z,15.90
2022-12-11T06:20:43.649Z,16.70
2022-12-11T06:21:43.831Z,14.80
2022-12-11T06:22:43.990Z,15.20
2022-12-11T06:23:44.153Z,16.00
2022-12-11T06:24:44.318Z,16.10
2022-12-11T06:25:44.505Z,16.10
2022-12-11T06:26:44.660Z,16.90
2022-12-11T06:27:44.863Z,15.20
2022-12-11T06:28:45.018Z,16.30
2022-12-11T06:29:45.186Z,15.50
2022-12-11T06:30:45.353Z,15.80
2022-12-11T06:31:45.578Z,15.90
2022-12-11T06:32:45.699Z,16.20
2022-12-11T06:33:45.864Z,15.20
2022-12-11T06:34:46.065Z,14.60
2022-12-11T06:35:46.203Z,15.50
2022-12-11T06:36:46.365Z,16.20
2022-12-11T06:37:46.556Z,16.10
2022-12-11T06:38:46.707Z,15.40
2022-12-11T06:39:46.896Z,16.50
2022-12-11T06:40:47.068Z,15.60
2022-12-11T06:41:47.237Z,15.50
2022-12-11T06:42:47.399Z,16.10
2022-12-11T06:43:47.579Z,15.70
2022-12-11T06:44:47.725Z,15.80
2022-12-11T06:45:47.928Z,15.80
2022-12-11T06:46:48.056Z,16.40
2022-12-11T06:47:48.226Z,16.70
2022-12-11T06:48:48.389Z,16.40
2022-12-11T06:49:48.550Z,15.50
2022-12-11T06:50:48.718Z,16.10
2022-12-11T06:51:48.900Z,16.10
2022-12-11T06:52:49.085Z,16.70
2022-12-11T06:53:49.258Z,15.70
2022-12-11T06:54:49.408Z,15.80
2022-12-11T06:55:49.576Z,16.00
2022-12-11T06:56:49.746Z,17.50
2022-12-11T06:57:49.930Z,15.30
2022-12-11T06:58:50.088Z,17.50
2022-12-11T06:59:50.253Z,15.00
2022-12-11T07:00:50.453Z,17.30
2022-12-11T07:01:50.633Z,18.90
2022-12-11T07:02:50.787Z,17.10
2022-12-11T07:03:50.969Z,16.00
2022-12-11T07:04:55.023Z,16.90
2022-12-11T07:05:51.278Z,17.70
2022-12-11T07:06:51.447Z,16.70
2022-12-11T07:07:51.661Z,17.10
2022-12-11T07:08:51.800Z,16.70
2022-12-11T07:09:51.960Z,17.10
2022-12-11T07:10:52.122Z,17.10
2022-12-11T07:11:52.301Z,16.00
2022-12-11T07:12:52.493Z,16.00
2022-12-11T07:13:52.634Z,16.00
2022-12-11T07:14:52.802Z,16.10
2022-12-11T07:15:52.972Z,17.00
2022-12-11T07:16:53.227Z,15.60
2022-12-11T07:17:53.320Z,18.20
2022-12-11T07:18:53.482Z,17.30
2022-12-11T07:19:53.651Z,17.80
2022-12-11T07:20:53.831Z,16.10
2022-12-11T07:21:53.987Z,16.70
2022-12-11T07:22:54.179Z,17.50
2022-12-11T07:23:54.342Z,15.80
2022-12-11T07:24:54.503Z,16.00
2022-12-11T07:25:54.684Z,17.70
2022-12-11T07:26:54.854Z,17.30
2022-12-11T07:27:55.023Z,18.10
2022-12-11T07:28:55.212Z,16.40
2022-12-11T07:29:55.354Z,16.80
2022-12-11T07:30:55.530Z,17.10
2022-12-11T07:31:55.784Z,17.20
2022-12-11T07:32:55.906Z,17.60
2022-12-11T07:33:56.053Z,16.90
2022-12-11T07:34:56.203Z,17.70
2022-12-11T07:35:56.389Z,16.90
2022-12-11T07:36:56.553Z,17.50
2022-12-11T07:37:56.725Z,19.30
2022-12-11T07:38:56.893Z,16.70
2022-12-11T07:39:57.054Z,17.10
2022-12-11T07:40:57.224Z,17.50
2022-12-11T07:41:57.405Z,19.00
2022-12-11T07:42:57.574Z,18.10
2022-12-11T07:43:57.735Z,19.40
2022-12-11T07:44:57.900Z,17.70
2022-12-11T07:45:58.108Z,16.50
2022-12-11T07:46:58.250Z,17.20
2022-12-11T07:47:58.426Z,18.20
2022-12-11T07:48:58.591Z,17.30
2022-12-11T07:49:58.763Z,18.50
2022-12-11T07:50:58.917Z,17.70
2022-12-11T07:51:59.101Z,18.90
2022-12-11T07:52:59.272Z,18.40
2022-12-11T07:53:59.431Z,18.10
2022-12-11T07:54:59.597Z,19.50
2022-12-11T07:55:59.779Z,17.40
2022-12-11T07:56:59.941Z,19.00
2022-12-11T07:58:00.143Z,19.20
2022-12-11T07:59:00.297Z,18.90
2022-12-11T08:00:00.476Z,17.50
2022-12-11T08:01:00.688Z,16.30
2022-12-11T08:02:00.910Z,18.60
2022-12-11T08:03:01.032Z,18.20
2022-12-11T08:04:01.176Z,18.50
2022-12-11T08:05:01.348Z,18.10
2022-12-11T08:06:01.533Z,19.30
2022-12-11T08:07:01.711Z,16.60
2022-12-11T08:08:01.974Z,18.10
2022-12-11T08:09:02.080Z,16.80
2022-12-11T08:10:02.273Z,18.10
2022-12-11T08:11:02.413Z,19.50
2022-12-11T08:12:02.607Z,18.30
2022-12-11T08:13:02.790Z,18.00
2022-12-11T08:14:02.940Z,18.50
2022-12-11T08:15:03.119Z,18.90
2022-12-11T08:16:03.307Z,18.00
2022-12-11T08:17:03.529Z,15.00
2022-12-11T08:18:03.686Z,12.30
2022-12-11T08:19:03.831Z,13.60
2022-12-11T08:20:04.001Z,13.80
2022-12-11T08:21:04.164Z,14.10
2022-12-11T08:22:04.330Z,14.30
2022-12-11T08:23:04.533Z,15.10
2022-12-11T08:24:04.674Z,18.20
2022-12-11T08:25:04.851Z,18.70
2022-12-11T08:26:05.048Z,18.90
2022-12-11T08:27:05.196Z,18.90
2022-12-11T08:28:05.397Z,21.40
2022-12-11T08:29:05.549Z,19.80
2022-12-11T08:30:05.736Z,19.20
2022-12-11T08:31:05.929Z,18.80
2022-12-11T08:32:11.908Z,18.60
2022-12-11T08:33:07.243Z,17.10
2022-12-11T08:34:06.392Z,17.40
2022-12-11T08:35:06.553Z,16.60
2022-12-11T08:36:06.722Z,17.10
2022-12-11T08:37:06.872Z,17.20
2022-12-11T08:38:07.055Z,16.10
2022-12-11T08:39:07.212Z,17.30
2022-12-11T08:40:07.373Z,14.90
2022-12-11T08:41:07.558Z,15.10
2022-12-11T08:42:07.756Z,14.90
2022-12-11T08:43:07.925Z,13.90
2022-12-11T08:44:11.639Z,14.10
2022-12-11T08:45:09.663Z,14.60
2022-12-11T08:46:08.479Z,15.30
2022-12-11T08:47:08.594Z,12.60
2022-12-11T08:48:08.787Z,14.30
2022-12-11T08:49:08.955Z,14.10
2022-12-11T08:50:09.134Z,12.60
2022-12-11T08:51:09.304Z,13.40
2022-12-11T08:52:09.488Z,15.30
2022-12-11T08:55:22.982Z,10.60
2022-12-11T08:56:23.147Z,10.40
2022-12-11T08:57:23.332Z,7.10
2022-12-11T08:58:23.482Z,9.10
2022-12-11T08:59:23.663Z,8.50
2022-12-11T09:00:23.845Z,7.20
2022-12-11T09:01:24.067Z,7.50
2022-12-11T09:02:37.161Z,6.50
2022-12-11T09:03:37.355Z,6.70
2022-12-11T09:05:29.739Z,12.50
2022-12-11T09:06:29.842Z,12.10
2022-12-11T09:07:30.030Z,10.30
2022-12-11T09:08:30.244Z,10.70
2022-12-11T09:09:30.423Z,10.60
2022-12-11T09:10:30.564Z,11.40
2022-12-11T09:11:30.741Z,11.00
2022-12-11T09:12:30.915Z,11.80
2022-12-11T09:13:31.100Z,11.40
2022-12-11T09:14:31.278Z,12.50
2022-12-11T09:15:31.500Z,11.80
2022-12-11T09:16:31.632Z,12.20
2022-12-11T09:17:31.805Z,12.00
2022-12-11T09:18:31.987Z,13.60
2022-12-11T09:20:47.245Z,12.40
2022-12-11T09:21:47.404Z,12.60
2022-12-11T09:22:47.585Z,13.10
2022-12-11T09:23:47.761Z,13.20
2022-12-11T09:24:47.946Z,13.90
2022-12-11T09:25:48.104Z,13.70
2022-12-11T09:26:48.290Z,13.60
2022-12-11T09:27:48.467Z,12.80
2022-12-11T09:28:48.656Z,12.90
2022-12-11T09:29:48.847Z,13.70
2022-12-11T09:30:49.058Z,13.30
2022-12-11T09:31:49.151Z,12.90
2022-12-11T09:32:49.330Z,13.10
2022-12-11T09:33:49.507Z,15.00
2022-12-11T09:34:49.706Z,13.40
2022-12-11T09:35:49.891Z,13.90
2022-12-11T09:36:50.067Z,13.10
2022-12-11T09:37:50.226Z,13.20
2022-12-11T09:38:50.386Z,12.70
2022-12-11T09:39:50.582Z,15.10
2022-12-11T09:40:50.754Z,13.40
2022-12-11T09:41:50.905Z,13.90
2022-12-11T09:42:51.107Z,17.70
2022-12-11T09:43:51.241Z,19.40
2022-12-11T09:44:51.440Z,17.90
2022-12-11T09:45:51.616Z,17.00
2022-12-11T09:46:51.849Z,16.30
2022-12-11T09:47:51.913Z,16.40
2022-12-11T09:48:52.095Z,17.10
2022-12-11T09:49:52.264Z,16.30
2022-12-11T09:50:52.442Z,17.30
2022-12-11T09:51:52.610Z,15.70
2022-12-11T09:52:52.807Z,16.00
2022-12-11T09:53:52.968Z,16.00
2022-12-11T09:54:53.160Z,16.00
2022-12-11T09:55:53.300Z,15.50
2022-12-11T09:56:53.489Z,15.10
2022-12-11T09:57:53.654Z,16.40
2022-12-11T09:58:53.833Z,15.20
2022-12-11T09:59:54.018Z,15.20
2022-12-11T10:00:54.213Z,15.70
2022-12-11T10:01:54.372Z,15.10
2022-12-11T10:02:54.581Z,16.10
2022-12-11T10:03:54.695Z,16.50
2022-12-11T10:04:54.924Z,14.10
2022-12-11T10:05:58.332Z,14.30
2022-12-11T10:06:56.237Z,15.00
2022-12-11T10:07:55.439Z,15.70
2022-12-11T10:08:55.613Z,14.30
2022-12-11T10:09:55.803Z,14.90
2022-12-11T10:10:55.976Z,16.30
2022-12-11T10:11:57.049Z,14.40
2022-12-11T10:12:56.303Z,16.00
2022-12-11T10:13:56.474Z,14.50
2022-12-11T10:14:56.719Z,15.50
2022-12-11T10:15:56.873Z,16.00
2022-12-11T10:16:57.000Z,14.20
2022-12-11T10:18:02.986Z,14.90
2022-12-11T10:18:58.355Z,15.30
2022-12-11T10:19:57.560Z,14.70
2022-12-11T10:20:57.734Z,15.60
2022-12-11T10:21:57.919Z,15.10
2022-12-11T10:22:58.096Z,15.10
2022-12-11T10:23:58.282Z,15.00
2022-12-11T10:25:10.795Z,16.10
2022-12-11T10:25:59.631Z,14.80
2022-12-11T10:26:58.831Z,15.10
2022-12-11T10:27:58.987Z,14.90
2022-12-11T10:28:59.168Z,14.80
2022-12-11T10:29:59.378Z,15.60
2022-12-11T10:30:59.574Z,14.50
2022-12-11T10:31:59.705Z,16.00
2022-12-11T10:32:59.890Z,15.80
2022-12-11T10:34:00.086Z,14.70
2022-12-11T10:35:00.250Z,14.50
2022-12-11T10:36:00.453Z,16.70
2022-12-11T10:37:00.769Z,16.00
2022-12-11T10:38:00.724Z,16.50
2022-12-11T10:39:00.942Z,15.00
2022-12-11T10:40:01.089Z,14.40
2022-12-11T10:41:01.270Z,15.00
2022-12-11T10:42:01.408Z,15.20
2022-12-11T10:43:01.608Z,14.60
2022-12-11T10:44:01.813Z,15.40
2022-12-11T10:45:01.975Z,15.50
2022-12-11T10:46:02.223Z,16.00
2022-12-11T10:47:02.312Z,16.10
2022-12-11T10:48:02.526Z,18.10
2022-12-11T10:49:02.655Z,17.80
2022-12-11T10:50:02.834Z,21.60
2022-12-11T10:51:03.026Z,21.40
2022-12-11T10:52:03.183Z,19.80
2022-12-11T10:53:03.365Z,18.30
2022-12-11T10:54:07.137Z,18.70
2022-12-11T10:55:03.699Z,17.80
2022-12-11T10:56:03.933Z,17.00
2022-12-11T10:57:04.068Z,19.10
2022-12-11T10:58:04.213Z,16.70
2022-12-11T10:59:04.393Z,15.80
2022-12-11T11:00:04.602Z,17.80
2022-12-11T11:01:04.755Z,19.30
2022-12-11T11:02:04.933Z,16.90
2022-12-11T11:03:05.107Z,16.80
2022-12-11T11:04:05.246Z,16.10
2022-12-11T11:05:05.419Z,16.30
2022-12-11T11:06:05.606Z,15.80
2022-12-11T11:07:05.788Z,16.60
2022-12-11T11:08:05.990Z,17.00
2022-12-11T11:09:06.121Z,17.10
2022-12-11T11:10:06.306Z,16.50
2022-12-11T11:11:06.507Z,15.80
2022-12-11T11:12:08.193Z,15.30
2022-12-11T11:13:06.838Z,16.50
2022-12-11T11:14:06.978Z,15.90
2022-12-11T11:15:07.174Z,15.40
2022-12-11T11:16:07.370Z,16.60
2022-12-11T11:17:07.553Z,15.20
2022-12-11T11:18:07.677Z,14.60
2022-12-11T11:19:07.849Z,15.60
2022-12-11T11:20:08.029Z,17.00
2022-12-11T11:21:08.202Z,16.40
2022-12-11T11:22:08.348Z,15.60
2022-12-11T11:23:08.529Z,16.50
2022-12-11T11:24:08.745Z,15.30
2022-12-11T11:25:09.188Z,15.50
2022-12-11T11:26:09.098Z,15.30
2022-12-11T11:27:13.644Z,15.30
2022-12-11T11:28:09.420Z,16.40
2022-12-11T11:29:09.610Z,16.10
2022-12-11T11:30:09.769Z,16.70
2022-12-11T11:31:09.988Z,16.40
2022-12-11T11:32:10.110Z,15.60
2022-12-11T11:33:10.316Z,16.00
2022-12-11T11:34:10.464Z,16.10
2022-12-11T11:35:10.855Z,16.10
2022-12-11T11:36:10.852Z,15.80
2022-12-11T11:37:11.022Z,15.50
2022-12-11T11:38:11.171Z,16.70
2022-12-11T11:39:11.349Z,15.90
2022-12-11T11:40:11.531Z,14.60
2022-12-11T11:41:15.137Z,15.10
2022-12-11T11:42:11.889Z,15.70
2022-12-11T11:43:12.055Z,15.90
2022-12-11T11:44:12.253Z,16.40
2022-12-11T11:45:12.671Z,15.90
2022-12-11T11:46:12.640Z,15.50
2022-12-11T11:47:12.769Z,15.50
2022-12-11T11:48:12.975Z,17.30
2022-12-11T11:49:13.167Z,16.50
2022-12-11T11:50:13.377Z,15.90
2022-12-11T11:51:13.481Z,14.60
2022-12-11T11:52:13.656Z,15.20
2022-12-11T11:53:13.829Z,15.10
2022-12-11T11:54:14.045Z,17.00
2022-12-11T11:55:18.462Z,18.00
2022-12-11T11:56:15.325Z,22.30
2022-12-11T11:57:14.535Z,21.00
2022-12-11T11:58:14.707Z,20.10
2022-12-11T11:59:14.856Z,17.90
2022-12-11T12:00:15.021Z,19.90
2022-12-11T12:01:15.183Z,18.60
2022-12-11T12:02:15.370Z,16.90
2022-12-11T12:03:15.553Z,17.80
2022-12-11T12:04:15.710Z,17.10
2022-12-11T12:05:15.879Z,17.50
2022-12-11T12:06:16.065Z,17.20
2022-12-11T12:07:16.190Z,16.00
2022-12-11T12:08:16.425Z,17.10
2022-12-11T12:09:16.616Z,18.20
2022-12-11T12:10:16.721Z,16.60
2022-12-11T12:11:16.863Z,19.00
2022-12-11T12:12:22.788Z,17.10
2022-12-11T12:13:47.729Z,17.60
2022-12-11T12:14:50.514Z,16.70
2022-12-11T12:15:18.561Z,15.20
2022-12-11T12:16:50.570Z,17.00
2022-12-11T12:17:18.989Z,15.40
2022-12-11T12:18:18.084Z,15.40
2022-12-11T12:19:18.264Z,17.50
2022-12-11T12:20:18.453Z,16.10
2022-12-11T12:21:18.609Z,15.80
2022-12-11T12:22:18.784Z,17.60
2022-12-11T12:23:18.952Z,16.30
2022-12-11T12:24:19.125Z,16.80
2022-12-11T12:25:19.315Z,16.50
2022-12-11T12:26:19.466Z,16.80
2022-12-11T12:27:50.648Z,16.90
2022-12-11T12:28:20.787Z,16.90
2022-12-11T12:29:19.956Z,17.20
2022-12-11T12:30:22.899Z,16.00
2022-12-11T12:31:20.318Z,17.00
2022-12-11T12:32:20.451Z,16.40
2022-12-11T12:33:20.636Z,15.50
2022-12-11T12:34:20.809Z,17.30
2022-12-11T12:35:20.996Z,16.00
2022-12-11T12:36:21.176Z,17.80
2022-12-11T12:37:21.332Z,16.40
2022-12-11T12:38:21.497Z,16.20
2022-12-11T12:39:21.671Z,17.60
2022-12-11T12:40:21.877Z,16.80
2022-12-11T12:41:22.057Z,16.30
2022-12-11T12:42:22.207Z,17.80
2022-12-11T12:43:22.394Z,16.00
2022-12-11T12:44:22.652Z,17.80
2022-12-11T12:45:22.840Z,15.90
2022-12-11T12:46:22.919Z,15.90
2022-12-11T12:47:23.133Z,16.50
2022-12-11T12:48:23.287Z,16.50
2022-12-11T12:49:23.493Z,16.70
2022-12-11T12:50:23.668Z,15.50
2022-12-11T12:51:23.809Z,16.30
2022-12-11T12:52:23.988Z,17.60
2022-12-11T12:53:24.158Z,16.40
2022-12-11T12:54:24.355Z,17.20
2022-12-11T12:55:24.509Z,17.40
2022-12-11T12:56:24.650Z,16.80
2022-12-11T12:57:24.830Z,17.90
2022-12-11T12:58:24.999Z,17.30
2022-12-11T12:59:25.265Z,15.20